createdAt,value
2022-11-13T00:00:43.687Z,9.28
2022-11-13T00:03:10.174Z,9.23
2022-11-13T00:05:36.699Z,9.21
2022-11-13T00:08:03.294Z,9.17
2022-11-13T00:10:29.811Z,9.19
2022-11-13T00:12:56.350Z,9.18
2022-11-13T00:15:22.928Z,9.17
2022-11-13T00:17:49.398Z,9.18
2022-11-13T00:20:16.039Z,9.17
2022-11-13T00:22:42.592Z,9.16
2022-11-13T00:25:09.491Z,9.15
2022-11-13T00:27:36.154Z,9.12
2022-11-13T00:30:02.711Z,9.11
2022-11-13T00:32:29.246Z,9.10
2022-11-13T00:34:55.786Z,9.09
2022-11-13T00:37:22.277Z,9.07
2022-11-13T00:39:48.823Z,9.05
2022-11-13T00:42:15.521Z,9.04
2022-11-13T00:44:42.160Z,9.02
2022-11-13T00:47:08.664Z,9.01
2022-11-13T00:49:35.161Z,9.00
2022-11-13T00:52:03.159Z,8.99
2022-11-13T00:54:29.922Z,8.97
2022-11-13T00:56:56.386Z,9.24
2022-11-13T00:59:22.922Z,8.98
2022-11-13T01:01:49.463Z,8.94
2022-11-13T01:04:16.027Z,8.93
2022-11-13T01:06:42.588Z,8.91
2022-11-13T01:09:09.388Z,8.87
2022-11-13T01:11:35.835Z,9.13
2022-11-13T01:14:02.315Z,8.85
2022-11-13T01:16:29.588Z,8.81
2022-11-13T01:18:57.068Z,8.78
2022-11-13T01:21:26.590Z,8.76
2022-11-13T01:23:54.689Z,8.71
2022-11-13T01:26:24.276Z,8.70
2022-11-13T01:28:51.136Z,8.64
2022-11-13T01:31:21.282Z,8.66
2022-11-13T01:33:49.129Z,8.60
2022-11-13T01:36:22.291Z,8.63
2022-11-13T01:38:49.847Z,8.56
2022-11-13T01:41:26.601Z,8.58
2022-11-13T01:43:55.424Z,8.54
2022-11-13T01:46:26.578Z,8.55
2022-11-13T01:49:08.551Z,8.54
2022-11-13T01:51:41.524Z,8.49
2022-11-13T01:54:13.012Z,8.49
2022-11-13T01:56:40.888Z,8.45
2022-11-13T01:59:12.992Z,8.46
2022-11-13T02:01:39.595Z,8.41
2022-11-13T02:04:06.326Z,8.42
2022-11-13T02:06:42.644Z,8.46
2022-11-13T02:09:10.380Z,8.38
2022-11-13T02:11:37.927Z,8.37
2022-11-13T02:14:04.842Z,8.34
2022-11-13T02:16:33.580Z,8.35
2022-11-13T02:19:03.869Z,8.35
2022-11-13T02:22:03.374Z,8.45
2022-11-13T02:24:36.792Z,8.37
2022-11-13T02:27:13.220Z,8.37
2022-11-13T02:29:39.845Z,8.31
2022-11-13T02:32:06.416Z,8.32
2022-11-13T02:34:32.962Z,8.30
2022-11-13T02:36:59.464Z,8.29
2022-11-13T02:39:26.106Z,8.28
2022-11-13T02:41:52.911Z,8.27
2022-11-13T02:44:19.388Z,8.53
2022-11-13T02:46:45.883Z,8.28
2022-11-13T02:49:12.406Z,8.26
2022-11-13T02:51:39.004Z,8.24
2022-11-13T02:54:05.758Z,8.22
2022-11-13T02:56:32.195Z,8.47
2022-11-13T02:58:58.686Z,8.22
2022-11-13T03:01:25.345Z,8.20
2022-11-13T03:03:59.273Z,8.18
2022-11-13T03:06:25.886Z,8.16
2022-11-13T03:08:52.343Z,8.15
2022-11-13T03:11:18.862Z,8.12
2022-11-13T03:13:45.338Z,8.13
2022-11-13T03:16:15.174Z,8.14
2022-11-13T03:18:42.000Z,8.09
2022-11-13T03:21:10.021Z,8.36
2022-11-13T03:23:36.535Z,8.38
2022-11-13T03:26:08.153Z,8.16
2022-11-13T03:28:35.464Z,8.07
2022-11-13T03:31:02.523Z,8.01
2022-11-13T03:33:29.491Z,7.97
2022-11-13T03:35:56.018Z,7.93
2022-11-13T03:38:23.145Z,7.90
2022-11-13T03:40:50.162Z,7.83
2022-11-13T03:43:16.642Z,7.80
2022-11-13T03:45:45.215Z,7.78
2022-11-13T03:48:12.765Z,7.70
2022-11-13T03:50:44.277Z,7.66
2022-11-13T03:53:12.049Z,7.62
2022-11-13T03:55:38.982Z,7.61
2022-11-13T03:58:05.478Z,7.57
2022-11-13T04:00:32.189Z,7.54
2022-11-13T04:02:58.644Z,7.51
2022-11-13T04:05:27.425Z,7.48
2022-11-13T04:07:53.986Z,7.44
2022-11-13T04:10:20.438Z,7.42
2022-11-13T04:12:46.875Z,7.40
2022-11-13T04:15:13.566Z,7.35
2022-11-13T04:17:40.046Z,7.32
2022-11-13T04:20:07.479Z,7.31
2022-11-13T04:22:33.891Z,7.28
2022-11-13T04:25:00.470Z,7.28
2022-11-13T04:27:26.896Z,7.27
2022-11-13T04:29:53.311Z,7.26
2022-11-13T04:32:19.814Z,7.26
2022-11-13T04:34:46.234Z,7.25
2022-11-13T04:37:12.766Z,7.25
2022-11-13T04:39:39.182Z,7.24
2022-11-13T04:42:24.627Z,7.22
2022-11-13T04:44:51.178Z,7.20
2022-11-13T04:47:17.611Z,7.19
2022-11-13T04:49:44.026Z,7.19
2022-11-13T04:52:10.494Z,7.17
2022-11-13T04:54:36.957Z,7.15
2022-11-13T04:57:03.462Z,7.14
2022-11-13T04:59:29.984Z,7.13
2022-11-13T05:01:57.037Z,7.10
2022-11-13T05:04:23.763Z,7.07
2022-11-13T05:06:50.320Z,7.05
2022-11-13T05:09:17.976Z,7.04
2022-11-13T05:11:44.423Z,7.02
2022-11-13T05:14:13.929Z,7.05
2022-11-13T05:16:40.412Z,6.99
2022-11-13T05:19:07.083Z,6.98
2022-11-13T05:21:37.695Z,7.02
2022-11-13T05:24:05.391Z,6.97
2022-11-13T05:26:31.931Z,6.94
2022-11-13T05:28:59.875Z,6.94
2022-11-13T05:31:27.331Z,6.93
2022-11-13T05:33:54.931Z,6.91
2022-11-13T05:36:22.778Z,6.92
2022-11-13T05:38:49.491Z,6.91
2022-11-13T05:41:21.512Z,6.95
2022-11-13T05:43:49.028Z,6.89
2022-11-13T05:46:23.587Z,6.94
2022-11-13T05:49:01.057Z,6.91
2022-11-13T05:51:30.460Z,6.88
2022-11-13T05:53:57.627Z,6.85
2022-11-13T05:56:35.763Z,6.86
2022-11-13T05:59:02.217Z,6.84
2022-11-13T06:01:30.658Z,6.84
2022-11-13T06:03:58.976Z,6.84
2022-11-13T06:06:27.364Z,6.82
2022-11-13T06:08:55.783Z,6.81
2022-11-13T06:11:24.600Z,6.81
2022-11-13T06:13:52.644Z,6.76
2022-11-13T06:16:26.587Z,6.77
2022-11-13T06:19:01.284Z,6.78
2022-11-13T06:21:30.508Z,6.71
2022-11-13T06:23:58.240Z,6.70
2022-11-13T06:26:36.431Z,6.70
2022-11-13T06:29:05.127Z,6.67
2022-11-13T06:31:34.688Z,6.66
2022-11-13T06:34:01.984Z,6.63
2022-11-13T06:36:33.849Z,6.63
2022-11-13T06:39:01.129Z,6.60
2022-11-13T06:41:31.256Z,6.59
2022-11-13T06:44:02.689Z,6.56
2022-11-13T06:46:30.530Z,6.55
2022-11-13T06:48:57.507Z,6.52
2022-11-13T06:51:26.858Z,6.52
2022-11-13T06:53:53.876Z,6.48
2022-11-13T06:56:20.993Z,6.46
2022-11-13T06:58:47.563Z,6.46
2022-11-13T07:01:24.746Z,6.53
2022-11-13T07:03:51.326Z,6.46
2022-11-13T07:06:21.369Z,6.50
2022-11-13T07:08:48.354Z,6.49
2022-11-13T07:11:20.602Z,6.53
2022-11-13T07:13:47.191Z,6.56
2022-11-13T07:16:17.789Z,6.61
2022-11-13T07:18:49.866Z,6.69
2022-11-13T07:21:16.415Z,6.71
2022-11-13T07:23:43.759Z,6.76
2022-11-13T07:26:11.077Z,6.83
2022-11-13T07:28:38.471Z,6.89
2022-11-13T07:31:07.418Z,6.95
2022-11-13T07:33:34.201Z,7.03
2022-11-13T07:36:00.699Z,7.31
2022-11-13T07:38:27.563Z,7.23
2022-11-13T07:40:54.331Z,7.29
2022-11-13T07:43:20.836Z,7.37
2022-11-13T07:45:47.415Z,7.46
2022-11-13T07:48:13.959Z,7.58
2022-11-13T07:50:40.550Z,7.78
2022-11-13T07:53:08.693Z,8.10
2022-11-13T07:55:36.221Z,8.47
2022-11-13T07:58:03.776Z,8.89
2022-11-13T08:00:32.061Z,9.33
2022-11-13T08:02:59.671Z,9.75
2022-11-13T08:05:26.253Z,10.20
2022-11-13T08:07:53.045Z,10.61
2022-11-13T08:10:20.277Z,11.02
2022-11-13T08:12:47.447Z,11.16
2022-11-13T08:15:14.517Z,11.31
2022-11-13T08:17:41.800Z,11.44
2022-11-13T08:20:09.243Z,11.55
2022-11-13T08:22:35.958Z,11.66
2022-11-13T08:25:02.418Z,11.91
2022-11-13T08:27:29.166Z,11.82
2022-11-13T08:29:55.742Z,12.05
2022-11-13T08:32:22.683Z,11.91
2022-11-13T08:34:49.501Z,11.93
2022-11-13T08:37:16.203Z,12.15
2022-11-13T08:39:42.846Z,12.01
2022-11-13T08:42:09.344Z,12.03
2022-11-13T08:44:35.942Z,12.06
2022-11-13T08:47:02.553Z,12.08
2022-11-13T08:49:29.138Z,12.13
2022-11-13T08:51:55.727Z,12.19
2022-11-13T08:54:22.172Z,12.28
2022-11-13T08:56:54.626Z,12.38
2022-11-13T08:59:27.234Z,12.48
2022-11-13T09:01:59.323Z,12.61
2022-11-13T09:04:26.532Z,12.73
2022-11-13T09:06:53.642Z,12.86
2022-11-13T09:09:20.977Z,12.99
2022-11-13T09:11:47.532Z,13.10
2022-11-13T09:14:14.361Z,13.23
2022-11-13T09:16:41.305Z,13.34
2022-11-13T09:19:07.986Z,13.49
2022-11-13T09:21:34.368Z,13.79
2022-11-13T09:24:00.873Z,13.77
2022-11-13T09:26:27.341Z,13.90
2022-11-13T09:28:53.908Z,14.02
2022-11-13T09:31:20.436Z,14.13
2022-11-13T09:33:46.973Z,14.24
2022-11-13T09:36:15.490Z,14.36
2022-11-13T09:38:42.365Z,14.46
2022-11-13T09:41:15.638Z,14.61
2022-11-13T09:43:47.680Z,14.74
2022-11-13T09:46:20.216Z,14.86
2022-11-13T09:49:02.612Z,15.04
2022-11-13T09:51:33.056Z,15.17
2022-11-13T09:54:05.240Z,15.33
2022-11-13T09:56:39.828Z,15.48
2022-11-13T09:59:22.451Z,15.65
2022-11-13T10:02:12.282Z,15.78
2022-11-13T10:05:00.412Z,15.94
2022-11-13T10:07:41.065Z,16.07
2022-11-13T10:10:35.977Z,16.20
2022-11-13T10:13:04.959Z,16.31
2022-11-13T10:15:31.885Z,16.46
2022-11-13T10:18:18.587Z,16.68
2022-11-13T10:20:57.961Z,16.82
2022-11-13T10:23:30.434Z,16.95
2022-11-13T10:26:05.513Z,17.08
2022-11-13T10:31:18.845Z,17.23
2022-11-13T10:33:45.377Z,17.31
2022-11-13T10:36:24.384Z,17.56
2022-11-13T10:38:59.765Z,17.47
2022-11-13T10:41:26.356Z,17.44
2022-11-13T10:44:05.493Z,17.68
2022-11-13T10:46:33.172Z,17.48
2022-11-13T10:49:13.464Z,17.55
2022-11-13T10:51:40.020Z,17.50
2022-11-13T10:54:29.859Z,17.76
2022-11-13T10:57:05.420Z,17.62
2022-11-13T10:59:40.817Z,17.68
2022-11-13T11:02:20.566Z,17.75
2022-11-13T11:04:47.560Z,17.79
2022-11-13T11:07:20.682Z,17.91
2022-11-13T11:09:48.894Z,18.01
2022-11-13T11:12:30.153Z,18.15
2022-11-13T11:15:01.772Z,18.21
2022-11-13T11:17:43.636Z,18.38
2022-11-13T11:20:22.057Z,18.46
2022-11-13T11:22:58.947Z,18.54
2022-11-13T11:25:34.594Z,18.67
2022-11-13T11:28:09.896Z,18.72
2022-11-13T11:30:47.035Z,18.78
2022-11-13T11:33:23.196Z,19.04
2022-11-13T11:36:00.816Z,18.89
2022-11-13T11:38:36.529Z,18.87
2022-11-13T11:41:15.029Z,18.85
2022-11-13T11:43:51.591Z,18.82
2022-11-13T11:46:23.847Z,18.73
2022-11-13T11:48:51.252Z,18.60
2022-11-13T11:52:05.616Z,18.64
2022-11-13T11:54:43.969Z,18.35
2022-11-13T11:57:31.766Z,18.35
2022-11-13T12:00:04.717Z,18.19
2022-11-13T12:03:10.448Z,18.17
2022-11-13T12:06:02.894Z,17.99
2022-11-13T12:08:57.147Z,18.07
2022-11-13T12:11:33.675Z,18.00
2022-11-13T12:14:23.526Z,18.03
2022-11-13T12:17:17.507Z,18.04
2022-11-13T12:19:49.749Z,18.01
2022-11-13T12:22:46.527Z,18.07
2022-11-13T12:25:26.629Z,18.14
2022-11-13T12:28:20.348Z,18.16
2022-11-13T12:31:05.186Z,18.03
2022-11-13T12:33:44.937Z,17.97
2022-11-13T12:36:13.869Z,17.89
2022-11-13T12:39:00.562Z,17.85
2022-11-13T12:41:49.277Z,17.84
2022-11-13T12:44:27.439Z,17.74
2022-11-13T12:46:56.197Z,17.55
2022-11-13T12:49:22.641Z,17.46
2022-11-13T12:51:54.958Z,17.44
2022-11-13T12:54:34.780Z,17.36
2022-11-13T12:57:13.401Z,17.32
2022-11-13T12:59:43.714Z,17.20
2022-11-13T13:02:40.845Z,17.20
2022-11-13T13:05:14.157Z,17.00
2022-11-13T13:08:05.247Z,16.87
2022-11-13T13:10:59.509Z,16.80
2022-11-13T13:13:45.698Z,16.62
2022-11-13T13:16:29.672Z,16.35
2022-11-13T13:19:20.969Z,16.18
2022-11-13T13:21:47.681Z,15.77
2022-11-13T13:24:26.521Z,16.03
2022-11-13T13:26:53.099Z,15.48
2022-11-13T13:29:23.842Z,15.71
2022-11-13T13:32:26.387Z,15.37
2022-11-13T13:35:03.827Z,15.03
2022-11-13T13:38:05.840Z,14.91
2022-11-13T13:40:35.439Z,14.52
2022-11-13T13:43:56.214Z,14.55
2022-11-13T13:46:26.018Z,14.20
2022-11-13T13:48:56.835Z,14.06
2022-11-13T13:51:43.520Z,14.04
2022-11-13T13:54:15.214Z,13.76
2022-11-13T13:56:42.715Z,13.64
2022-11-13T13:59:19.624Z,13.63
2022-11-13T14:01:58.613Z,13.57
2022-11-13T14:04:32.875Z,13.39
2022-11-13T14:07:01.942Z,13.27
2022-11-13T14:09:30.798Z,13.18
2022-11-13T14:12:00.682Z,13.08
2022-11-13T14:14:29.038Z,12.97
2022-11-13T14:17:01.738Z,12.94
2022-11-13T14:19:28.432Z,12.79
2022-11-13T14:22:00.270Z,13.09
2022-11-13T14:24:34.139Z,12.71
2022-11-13T14:27:05.782Z,12.59
2022-11-13T14:29:39.271Z,12.48
2022-11-13T14:32:44.284Z,12.51
2022-11-13T14:35:22.239Z,12.29
2022-11-13T14:37:49.242Z,12.12
2022-11-13T14:40:25.495Z,12.12
2022-11-13T14:43:05.449Z,12.08
2022-11-13T14:45:33.316Z,11.92
2022-11-13T14:48:01.108Z,11.85
2022-11-13T14:50:34.103Z,11.81
2022-11-13T14:53:06.818Z,11.76
2022-11-13T14:55:37.681Z,11.68
2022-11-13T14:58:05.454Z,11.62
2022-11-13T15:00:35.949Z,11.61
2022-11-13T15:03:04.778Z,11.58
2022-11-13T15:05:31.544Z,11.53
2022-11-13T15:07:58.120Z,11.84
2022-11-13T15:10:27.852Z,11.55
2022-11-13T15:12:54.593Z,11.47
2022-11-13T15:15:23.766Z,11.77
2022-11-13T15:17:52.051Z,11.47
2022-11-13T15:20:22.969Z,11.45
2022-11-13T15:22:52.443Z,11.39
2022-11-13T15:25:21.809Z,11.37
2022-11-13T15:27:48.804Z,11.34
2022-11-13T15:30:17.009Z,11.30
2022-11-13T15:32:43.753Z,11.30
2022-11-13T15:35:20.153Z,11.58
2022-11-13T15:37:46.878Z,11.31
2022-11-13T15:40:14.268Z,11.56
2022-11-13T15:42:41.410Z,11.28
2022-11-13T15:45:14.178Z,11.28
2022-11-13T15:47:41.083Z,11.19
2022-11-13T15:50:16.105Z,11.17
2022-11-13T15:52:46.893Z,11.18
2022-11-13T15:55:25.266Z,11.17
2022-11-13T15:57:52.671Z,11.11
2022-11-13T16:00:25.254Z,11.10
2022-11-13T16:02:56.614Z,11.10
2022-11-13T16:05:25.484Z,11.05
2022-11-13T16:07:56.095Z,11.03
2022-11-13T16:10:25.317Z,10.99
2022-11-13T16:12:52.731Z,10.98
2022-11-13T16:15:19.985Z,10.94
2022-11-13T16:17:49.450Z,10.92
2022-11-13T16:20:17.922Z,10.92
2022-11-13T16:22:44.748Z,10.87
2022-11-13T16:25:12.510Z,11.16
2022-11-13T16:27:39.821Z,10.89
2022-11-13T16:30:09.896Z,10.82
2022-11-13T16:32:38.686Z,10.78
2022-11-13T16:35:05.600Z,10.75
2022-11-13T16:37:32.132Z,10.72
2022-11-13T16:39:58.765Z,10.68
2022-11-13T16:42:30.697Z,10.65
2022-11-13T16:44:57.501Z,10.61
2022-11-13T16:47:25.998Z,10.62
2022-11-13T16:49:52.778Z,10.58
2022-11-13T16:52:19.265Z,10.85
2022-11-13T16:54:45.936Z,10.58
2022-11-13T16:57:14.022Z,10.57
2022-11-13T16:59:40.884Z,10.54
2022-11-13T17:02:15.717Z,10.60
2022-11-13T17:04:43.137Z,10.54
2022-11-13T17:07:13.174Z,10.56
2022-11-13T17:09:44.023Z,10.57
2022-11-13T17:12:11.393Z,10.53
2022-11-13T17:14:38.899Z,10.53
2022-11-13T17:17:07.290Z,10.54
2022-11-13T17:19:33.950Z,10.52
2022-11-13T17:22:00.783Z,10.51
2022-11-13T17:24:27.383Z,10.48
2022-11-13T17:26:54.157Z,10.77
2022-11-13T17:29:20.683Z,10.49
2022-11-13T17:31:47.328Z,10.46
2022-11-13T17:34:13.875Z,10.41
2022-11-13T17:36:40.401Z,10.40
2022-11-13T17:39:06.959Z,10.36
2022-11-13T17:41:34.225Z,10.34
2022-11-13T17:44:01.456Z,10.28
2022-11-13T17:46:28.350Z,10.25
2022-11-13T17:48:55.109Z,10.22
2022-11-13T17:51:21.524Z,10.51
2022-11-13T17:53:48.098Z,10.24
2022-11-13T17:56:15.238Z,10.20
2022-11-13T17:58:43.508Z,10.19
2022-11-13T18:01:21.860Z,10.22
2022-11-13T18:03:54.480Z,10.18
2022-11-13T18:06:21.841Z,10.12
2022-11-13T18:08:48.381Z,10.10
2022-11-13T18:11:25.241Z,10.15
2022-11-13T18:13:52.808Z,10.08
2022-11-13T18:16:25.756Z,10.10
2022-11-13T18:18:55.528Z,10.06
2022-11-13T18:21:34.362Z,10.08
2022-11-13T18:24:10.107Z,10.11
2022-11-13T18:26:36.845Z,10.07
2022-11-13T18:29:03.664Z,10.34
2022-11-13T18:31:30.589Z,10.12
2022-11-13T18:34:02.580Z,10.15
2022-11-13T18:36:29.281Z,10.12
2022-11-13T18:38:56.213Z,10.39
2022-11-13T18:41:23.722Z,10.17
2022-11-13T18:43:51.820Z,10.17
2022-11-13T18:46:20.419Z,10.17
2022-11-13T18:48:47.757Z,10.17
2022-11-13T18:51:18.704Z,10.20
2022-11-13T18:53:48.446Z,10.19
2022-11-13T18:56:20.602Z,10.25
2022-11-13T18:58:48.501Z,10.21
2022-11-13T19:01:22.311Z,10.24
2022-11-13T19:04:16.157Z,10.23
2022-11-13T19:06:38.549Z,10.23
2022-11-13T19:09:08.226Z,10.24
2022-11-13T19:11:34.861Z,10.22
2022-11-13T19:14:02.158Z,10.23
2022-11-13T19:16:35.825Z,10.28
2022-11-13T19:19:06.019Z,10.25
2022-11-13T19:21:34.811Z,10.24
2022-11-13T19:24:02.623Z,10.22
2022-11-13T19:26:29.301Z,10.24
2022-11-13T19:28:56.116Z,10.53
2022-11-13T19:31:25.339Z,10.30
2022-11-13T19:33:59.729Z,10.32
2022-11-13T19:36:28.382Z,10.29
2022-11-13T19:38:57.892Z,10.32
2022-11-13T19:41:26.205Z,10.32
2022-11-13T19:43:52.812Z,10.31
2022-11-13T19:46:20.300Z,10.35
2022-11-13T19:48:50.457Z,10.40
2022-11-13T19:51:23.133Z,10.39
2022-11-13T19:53:54.957Z,10.44
2022-11-13T19:56:23.044Z,10.41
2022-11-13T19:58:51.283Z,10.43
2022-11-13T20:01:23.560Z,10.47
2022-11-13T20:03:57.365Z,10.51
2022-11-13T20:06:24.442Z,10.46
2022-11-13T20:08:51.039Z,10.48
2022-11-13T20:11:17.737Z,10.50
2022-11-13T20:13:44.574Z,10.50
2022-11-13T20:16:12.310Z,10.77
2022-11-13T20:18:39.361Z,10.55
2022-11-13T20:21:06.247Z,10.53
2022-11-13T20:23:33.358Z,10.52
2022-11-13T20:26:03.096Z,10.54
2022-11-13T20:28:31.563Z,10.56
2022-11-13T20:31:05.365Z,10.59
2022-11-13T20:33:33.404Z,10.55
2022-11-13T20:36:00.246Z,10.56
2022-11-13T20:38:27.642Z,10.56
2022-11-13T20:40:54.495Z,10.56
2022-11-13T20:43:21.373Z,10.59
2022-11-13T20:45:47.818Z,10.86
2022-11-13T20:48:14.408Z,10.64
2022-11-13T20:50:41.322Z,10.63
2022-11-13T20:53:08.024Z,10.61
2022-11-13T20:55:34.591Z,10.63
2022-11-13T20:58:01.093Z,10.62
2022-11-13T21:00:27.614Z,10.65
2022-11-13T21:02:54.125Z,10.65
2022-11-13T21:05:20.681Z,10.66
2022-11-13T21:07:47.285Z,10.68
2022-11-13T21:10:13.857Z,10.69
2022-11-13T21:12:40.388Z,10.69
2022-11-13T21:15:07.393Z,10.69
2022-11-13T21:17:33.867Z,10.69
2022-11-13T21:20:00.536Z,10.70
2022-11-13T21:22:27.067Z,10.70
2022-11-13T21:24:53.778Z,10.69
2022-11-13T21:27:20.284Z,10.69
2022-11-13T21:29:46.788Z,10.69
2022-11-13T21:32:13.228Z,10.68
2022-11-13T21:34:39.882Z,10.66
2022-11-13T21:37:07.705Z,10.66
2022-11-13T21:39:34.733Z,10.63
2022-11-13T21:42:01.243Z,10.61
2022-11-13T21:44:27.708Z,10.60
2022-11-13T21:46:54.369Z,10.58
2022-11-13T21:49:20.865Z,10.83
2022-11-13T21:51:47.385Z,10.56
2022-11-13T21:54:14.105Z,10.52
2022-11-13T21:56:42.056Z,10.49
